sensor_id;sensor_type;location;lat;lon;timestamp;P1;durP1;ratioP1;P2;durP2;ratioP2
6348;SDS011;3207;42.648;23.406;2022-12-18T00:00:07;77.50;;;46.00;;
6348;SDS011;3207;42.648;23.406;2022-12-18T00:02:35;74.30;;;45.73;;
6348;SDS011;3207;42.648;23.406;2022-12-18T00:05:02;76.10;;;46.53;;
6348;SDS011;3207;42.648;23.406;2022-12-18T00:07:29;66.77;;;40.87;;
6348;SDS011;3207;42.648;23.406;2022-12-18T00:09:57;71.80;;;43.10;;
6348;SDS011;3207;42.648;23.406;2022-12-18T00:12:24;64.90;;;39.67;;
6348;SDS011;3207;42.648;23.406;2022-12-18T00:14:51;68.47;;;40.20;;
6348;SDS011;3207;42.648;23.406;2022-12-18T00:17:17;58.20;;;35.23;;
6348;SDS011;3207;42.648;23.406;2022-12-18T00:19:44;64.10;;;37.60;;
6348;SDS011;3207;42.648;23.406;2022-12-18T00:22:11;60.43;;;36.97;;
6348;SDS011;3207;42.648;23.406;2022-12-18T00:24:38;61.20;;;37.63;;
6348;SDS011;3207;42.648;23.406;2022-12-18T00:27:06;61.17;;;37.13;;
6348;SDS011;3207;42.648;23.406;2022-12-18T00:29:33;63.47;;;35.80;;
6348;SDS011;3207;42.648;23.406;2022-12-18T00:32:00;58.50;;;34.77;;
6348;SDS011;3207;42.648;23.406;2022-12-18T00:34:27;54.10;;;33.77;;
6348;SDS011;3207;42.648;23.406;2022-12-18T00:36:53;52.73;;;31.23;;
6348;SDS011;3207;42.648;23.406;2022-12-18T00:39:20;51.40;;;31.63;;
6348;SDS011;3207;42.648;23.406;2022-12-18T00:41:47;51.33;;;29.57;;
6348;SDS011;3207;42.648;23.406;2022-12-18T00:44:32;46.63;;;28.40;;
6348;SDS011;3207;42.648;23.406;2022-12-18T00:46:59;51.53;;;30.30;;
6348;SDS011;3207;42.648;23.406;2022-12-18T00:49:26;48.10;;;29.07;;
6348;SDS011;3207;42.648;23.406;2022-12-18T00:51:55;46.13;;;28.20;;
6348;SDS011;3207;42.648;23.406;2022-12-18T00:54:24;46.23;;;26.20;;
6348;SDS011;3207;42.648;23.406;2022-12-18T00:56:51;41.13;;;26.77;;
6348;SDS011;3207;42.648;23.406;2022-12-18T00:59:20;39.03;;;23.03;;
6348;SDS011;3207;42.648;23.406;2022-12-18T01:01:48;35.40;;;21.50;;
6348;SDS011;3207;42.648;23.406;2022-12-18T01:04:15;35.67;;;22.03;;
6348;SDS011;3207;42.648;23.406;2022-12-18T01:06:42;37.87;;;23.10;;
6348;SDS011;3207;42.648;23.406;2022-12-18T01:09:08;34.43;;;21.67;;
6348;SDS011;3207;42.648;23.406;2022-12-18T01:11:35;38.00;;;23.67;;
6348;SDS011;3207;42.648;23.406;2022-12-18T01:14:02;38.57;;;21.67;;
6348;SDS011;3207;42.648;23.406;2022-12-18T01:16:30;31.03;;;19.80;;
6348;SDS011;3207;42.648;23.406;2022-12-18T01:18:58;32.70;;;20.47;;
6348;SDS011;3207;42.648;23.406;2022-12-18T01:21:24;28.23;;;18.50;;
6348;SDS011;3207;42.648;23.406;2022-12-18T01:23:54;29.63;;;17.83;;
6348;SDS011;3207;42.648;23.406;2022-12-18T01:26:23;29.40;;;18.53;;
6348;SDS011;3207;42.648;23.406;2022-12-18T01:28:50;30.50;;;18.70;;
6348;SDS011;3207;42.648;23.406;2022-12-18T01:31:18;32.00;;;19.27;;
6348;SDS011;3207;42.648;23.406;2022-12-18T01:33:49;26.30;;;18.17;;
6348;SDS011;3207;42.648;23.406;2022-12-18T01:36:19;29.47;;;19.00;;
6348;SDS011;3207;42.648;23.406;2022-12-18T01:38:48;34.20;;;18.23;;
6348;SDS011;3207;42.648;23.406;2022-12-18T01:41:17;35.80;;;20.47;;
6348;SDS011;3207;42.648;23.406;2022-12-18T01:43:47;35.33;;;21.17;;
6348;SDS011;3207;42.648;23.406;2022-12-18T01:46:17;31.90;;;20.30;;
6348;SDS011;3207;42.648;23.406;2022-12-18T01:48:46;33.17;;;21.13;;
6348;SDS011;3207;42.648;23.406;2022-12-18T01:51:16;33.33;;;20.13;;
6348;SDS011;3207;42.648;23.406;2022-12-18T01:53:45;31.50;;;19.03;;
6348;SDS011;3207;42.648;23.406;2022-12-18T01:56:13;34.40;;;19.67;;
6348;SDS011;3207;42.648;23.406;2022-12-18T01:58:45;29.83;;;19.73;;
6348;SDS011;3207;42.648;23.406;2022-12-18T02:01:17;33.73;;;18.83;;
6348;SDS011;3207;42.648;23.406;2022-12-18T02:03:46;30.40;;;19.80;;
6348;SDS011;3207;42.648;23.406;2022-12-18T02:06:13;32.87;;;19.47;;
6348;SDS011;3207;42.648;23.406;2022-12-18T02:08:50;31.93;;;19.33;;
6348;SDS011;3207;42.648;23.406;2022-12-18T02:11:31;35.67;;;18.40;;
6348;SDS011;3207;42.648;23.406;2022-12-18T02:14:08;30.50;;;18.87;;
6348;SDS011;3207;42.648;23.406;2022-12-18T02:16:44;32.93;;;19.47;;
6348;SDS011;3207;42.648;23.406;2022-12-18T02:19:20;30.40;;;19.00;;
6348;SDS011;3207;42.648;23.406;2022-12-18T02:22:14;31.80;;;18.70;;
6348;SDS011;3207;42.648;23.406;2022-12-18T02:24:57;29.77;;;18.60;;
6348;SDS011;3207;42.648;23.406;2022-12-18T02:27:33;31.03;;;17.63;;
6348;SDS011;3207;42.648;23.406;2022-12-18T02:30:03;30.23;;;17.70;;
6348;SDS011;3207;42.648;23.406;2022-12-18T02:32:34;30.50;;;18.17;;
6348;SDS011;3207;42.648;23.406;2022-12-18T02:35:05;27.17;;;17.33;;
6348;SDS011;3207;42.648;23.406;2022-12-18T02:37:34;29.07;;;17.53;;
6348;SDS011;3207;42.648;23.406;2022-12-18T02:40:05;30.60;;;18.70;;
6348;SDS011;3207;42.648;23.406;2022-12-18T02:42:35;27.87;;;19.20;;
6348;SDS011;3207;42.648;23.406;2022-12-18T02:45:02;28.90;;;18.57;;
6348;SDS011;3207;42.648;23.406;2022-12-18T02:47:31;29.90;;;20.00;;
6348;SDS011;3207;42.648;23.406;2022-12-18T02:50:02;30.20;;;18.97;;
6348;SDS011;3207;42.648;23.406;2022-12-18T02:52:35;29.53;;;19.47;;
6348;SDS011;3207;42.648;23.406;2022-12-18T02:55:12;28.97;;;16.80;;
6348;SDS011;3207;42.648;23.406;2022-12-18T02:57:52;31.07;;;20.03;;
6348;SDS011;3207;42.648;23.406;2022-12-18T03:00:23;31.90;;;19.17;;
6348;SDS011;3207;42.648;23.406;2022-12-18T03:02:56;28.93;;;17.87;;
6348;SDS011;3207;42.648;23.406;2022-12-18T03:05:28;28.03;;;18.37;;
6348;SDS011;3207;42.648;23.406;2022-12-18T03:08:00;30.53;;;18.63;;
6348;SDS011;3207;42.648;23.406;2022-12-18T03:10:31;30.67;;;19.03;;
6348;SDS011;3207;42.648;23.406;2022-12-18T03:13:02;29.40;;;17.70;;
6348;SDS011;3207;42.648;23.406;2022-12-18T03:15:34;32.37;;;19.33;;
6348;SDS011;3207;42.648;23.406;2022-12-18T03:18:04;30.90;;;17.27;;
6348;SDS011;3207;42.648;23.406;2022-12-18T03:20:34;32.83;;;19.80;;
6348;SDS011;3207;42.648;23.406;2022-12-18T03:23:06;30.03;;;18.07;;
6348;SDS011;3207;42.648;23.406;2022-12-18T03:25:36;33.03;;;20.10;;
6348;SDS011;3207;42.648;23.406;2022-12-18T03:28:09;29.90;;;18.43;;
6348;SDS011;3207;42.648;23.406;2022-12-18T03:30:39;31.03;;;18.07;;
6348;SDS011;3207;42.648;23.406;2022-12-18T03:33:08;31.63;;;19.07;;
6348;SDS011;3207;42.648;23.406;2022-12-18T03:35:38;31.47;;;18.30;;
6348;SDS011;3207;42.648;23.406;2022-12-18T03:38:08;31.47;;;18.73;;
6348;SDS011;3207;42.648;23.406;2022-12-18T03:40:39;34.67;;;18.50;;
6348;SDS011;3207;42.648;23.406;2022-12-18T03:43:15;34.10;;;19.77;;
6348;SDS011;3207;42.648;23.406;2022-12-18T03:45:48;28.17;;;17.40;;
6348;SDS011;3207;42.648;23.406;2022-12-18T03:48:19;30.60;;;19.30;;
6348;SDS011;3207;42.648;23.406;2022-12-18T03:50:54;31.70;;;19.07;;
6348;SDS011;3207;42.648;23.406;2022-12-18T03:53:24;34.57;;;20.70;;
6348;SDS011;3207;42.648;23.406;2022-12-18T03:55:59;32.33;;;19.67;;
6348;SDS011;3207;42.648;23.406;2022-12-18T03:58:31;30.20;;;18.70;;
6348;SDS011;3207;42.648;23.406;2022-12-18T04:01:01;33.73;;;19.67;;
6348;SDS011;3207;42.648;23.406;2022-12-18T04:03:33;30.27;;;17.93;;
6348;SDS011;3207;42.648;23.406;2022-12-18T04:06:02;32.63;;;19.10;;
6348;SDS011;3207;42.648;23.406;2022-12-18T04:08:31;31.80;;;19.40;;
6348;SDS011;3207;42.648;23.406;2022-12-18T04:10:59;32.47;;;19.43;;
6348;SDS011;3207;42.648;23.406;2022-12-18T04:13:28;28.87;;;19.33;;
6348;SDS011;3207;42.648;23.406;2022-12-18T04:15:57;32.67;;;19.13;;
6348;SDS011;3207;42.648;23.406;2022-12-18T04:18:24;28.83;;;18.03;;
6348;SDS011;3207;42.648;23.406;2022-12-18T04:20:51;33.37;;;18.57;;
6348;SDS011;3207;42.648;23.406;2022-12-18T04:23:18;30.07;;;17.87;;
6348;SDS011;3207;42.648;23.406;2022-12-18T04:25:45;35.60;;;19.70;;
6348;SDS011;3207;42.648;23.406;2022-12-18T04:28:13;29.77;;;19.07;;
6348;SDS011;3207;42.648;23.406;2022-12-18T04:30:40;30.37;;;18.30;;
6348;SDS011;3207;42.648;23.406;2022-12-18T04:33:09;28.77;;;17.97;;
6348;SDS011;3207;42.648;23.406;2022-12-18T04:35:36;36.80;;;19.57;;
6348;SDS011;3207;42.648;23.406;2022-12-18T04:38:03;34.00;;;21.00;;
6348;SDS011;3207;42.648;23.406;2022-12-18T04:40:29;30.37;;;18.57;;
6348;SDS011;3207;42.648;23.406;2022-12-18T04:42:56;36.13;;;20.40;;
6348;SDS011;3207;42.648;23.406;2022-12-18T04:45:23;33.27;;;20.63;;
6348;SDS011;3207;42.648;23.406;2022-12-18T04:47:50;34.90;;;20.23;;
6348;SDS011;3207;42.648;23.406;2022-12-18T04:50:18;38.50;;;22.83;;
6348;SDS011;3207;42.648;23.406;2022-12-18T04:52:45;31.10;;;18.87;;
6348;SDS011;3207;42.648;23.406;2022-12-18T04:55:11;33.50;;;20.30;;
6348;SDS011;3207;42.648;23.406;2022-12-18T04:57:38;36.87;;;20.90;;
6348;SDS011;3207;42.648;23.406;2022-12-18T05:00:06;30.53;;;20.20;;
6348;SDS011;3207;42.648;23.406;2022-12-18T05:02:35;35.63;;;20.40;;
6348;SDS011;3207;42.648;23.406;2022-12-18T05:05:02;36.57;;;20.03;;
6348;SDS011;3207;42.648;23.406;2022-12-18T05:07:31;36.87;;;20.03;;
6348;SDS011;3207;42.648;23.406;2022-12-18T05:09:58;33.33;;;19.60;;
6348;SDS011;3207;42.648;23.406;2022-12-18T05:12:25;34.97;;;19.20;;
6348;SDS011;3207;42.648;23.406;2022-12-18T05:14:52;33.60;;;19.70;;
6348;SDS011;3207;42.648;23.406;2022-12-18T05:17:19;34.87;;;21.80;;
6348;SDS011;3207;42.648;23.406;2022-12-18T05:19:45;30.97;;;18.77;;
6348;SDS011;3207;42.648;23.406;2022-12-18T05:22:12;32.27;;;19.73;;
6348;SDS011;3207;42.648;23.406;2022-12-18T05:24:40;33.37;;;19.43;;
6348;SDS011;3207;42.648;23.406;2022-12-18T05:27:07;34.50;;;19.57;;
6348;SDS011;3207;42.648;23.406;2022-12-18T05:29:34;35.80;;;20.57;;
6348;SDS011;3207;42.648;23.406;2022-12-18T05:32:01;34.93;;;20.67;;
6348;SDS011;3207;42.648;23.406;2022-12-18T05:34:27;32.53;;;20.47;;
6348;SDS011;3207;42.648;23.406;2022-12-18T05:36:54;38.97;;;21.93;;
6348;SDS011;3207;42.648;23.406;2022-12-18T05:39:21;36.13;;;21.80;;
6348;SDS011;3207;42.648;23.406;2022-12-18T05:41:49;30.33;;;19.10;;
6348;SDS011;3207;42.648;23.406;2022-12-18T05:44:16;34.27;;;21.40;;
6348;SDS011;3207;42.648;23.406;2022-12-18T05:46:43;38.03;;;20.90;;
6348;SDS011;3207;42.648;23.406;2022-12-18T05:49:09;31.47;;;20.67;;
6348;SDS011;3207;42.648;23.406;2022-12-18T05:51:36;39.73;;;21.47;;
6348;SDS011;3207;42.648;23.406;2022-12-18T05:54:03;35.10;;;21.30;;
6348;SDS011;3207;42.648;23.406;2022-12-18T05:56:30;41.00;;;22.27;;
6348;SDS011;3207;42.648;23.406;2022-12-18T05:58:58;39.87;;;22.93;;
6348;SDS011;3207;42.648;23.406;2022-12-18T06:01:25;34.10;;;21.47;;
6348;SDS011;3207;42.648;23.406;2022-12-18T06:03:52;35.90;;;20.90;;
6348;SDS011;3207;42.648;23.406;2022-12-18T06:06:20;40.70;;;22.57;;
6348;SDS011;3207;42.648;23.406;2022-12-18T06:08:49;39.00;;;22.27;;
6348;SDS011;3207;42.648;23.406;2022-12-18T06:11:17;39.07;;;22.77;;
6348;SDS011;3207;42.648;23.406;2022-12-18T06:13:45;34.87;;;20.53;;
6348;SDS011;3207;42.648;23.406;2022-12-18T06:16:16;32.97;;;21.20;;
6348;SDS011;3207;42.648;23.406;2022-12-18T06:18:43;32.60;;;19.43;;
6348;SDS011;3207;42.648;23.406;2022-12-18T06:21:10;32.17;;;21.20;;
6348;SDS011;3207;42.648;23.406;2022-12-18T06:23:37;33.63;;;20.30;;
6348;SDS011;3207;42.648;23.406;2022-12-18T06:26:04;37.53;;;20.77;;
6348;SDS011;3207;42.648;23.406;2022-12-18T06:28:32;36.47;;;20.47;;
6348;SDS011;3207;42.648;23.406;2022-12-18T06:30:59;37.27;;;20.30;;
6348;SDS011;3207;42.648;23.406;2022-12-18T06:33:27;38.10;;;21.10;;
6348;SDS011;3207;42.648;23.406;2022-12-18T06:35:54;38.07;;;22.10;;
6348;SDS011;3207;42.648;23.406;2022-12-18T06:38:25;37.37;;;21.50;;
6348;SDS011;3207;42.648;23.406;2022-12-18T06:40:52;36.83;;;22.17;;
6348;SDS011;3207;42.648;23.406;2022-12-18T06:43:19;35.97;;;20.77;;
6348;SDS011;3207;42.648;23.406;2022-12-18T06:45:46;35.53;;;22.33;;
6348;SDS011;3207;42.648;23.406;2022-12-18T06:48:17;37.83;;;22.10;;
6348;SDS011;3207;42.648;23.406;2022-12-18T06:50:45;34.07;;;22.07;;
6348;SDS011;3207;42.648;23.406;2022-12-18T06:53:12;36.67;;;22.17;;
6348;SDS011;3207;42.648;23.406;2022-12-18T06:55:39;43.60;;;21.77;;
6348;SDS011;3207;42.648;23.406;2022-12-18T06:58:06;34.80;;;20.50;;
6348;SDS011;3207;42.648;23.406;2022-12-18T07:00:33;41.97;;;24.23;;
6348;SDS011;3207;42.648;23.406;2022-12-18T07:03:00;35.43;;;20.70;;
6348;SDS011;3207;42.648;23.406;2022-12-18T07:05:27;40.27;;;23.43;;
6348;SDS011;3207;42.648;23.406;2022-12-18T07:07:55;37.00;;;20.17;;
6348;SDS011;3207;42.648;23.406;2022-12-18T07:10:23;34.93;;;19.43;;
6348;SDS011;3207;42.648;23.406;2022-12-18T07:12:50;33.57;;;19.60;;
6348;SDS011;3207;42.648;23.406;2022-12-18T07:15:17;33.97;;;20.67;;
6348;SDS011;3207;42.648;23.406;2022-12-18T07:17:44;36.37;;;21.40;;
6348;SDS011;3207;42.648;23.406;2022-12-18T07:20:11;35.27;;;18.90;;
6348;SDS011;3207;42.648;23.406;2022-12-18T07:22:37;32.13;;;19.53;;
6348;SDS011;3207;42.648;23.406;2022-12-18T07:25:06;31.80;;;18.07;;
6348;SDS011;3207;42.648;23.406;2022-12-18T07:27:33;35.30;;;19.40;;
6348;SDS011;3207;42.648;23.406;2022-12-18T07:30:00;30.93;;;18.80;;
6348;SDS011;3207;42.648;23.406;2022-12-18T07:32:27;34.90;;;18.37;;
6348;SDS011;3207;42.648;23.406;2022-12-18T07:34:54;32.03;;;18.80;;
6348;SDS011;3207;42.648;23.406;2022-12-18T07:37:20;29.83;;;18.40;;
6348;SDS011;3207;42.648;23.406;2022-12-18T07:39:48;30.07;;;17.97;;
6348;SDS011;3207;42.648;23.406;2022-12-18T07:42:16;31.50;;;18.67;;
6348;SDS011;3207;42.648;23.406;2022-12-18T07:44:58;28.37;;;17.37;;
6348;SDS011;3207;42.648;23.406;2022-12-18T07:47:26;31.40;;;18.87;;
6348;SDS011;3207;42.648;23.406;2022-12-18T07:49:53;29.93;;;18.97;;
6348;SDS011;3207;42.648;23.406;2022-12-18T07:52:20;30.73;;;17.60;;
6348;SDS011;3207;42.648;23.406;2022-12-18T07:54:47;35.27;;;19.53;;
6348;SDS011;3207;42.648;23.406;2022-12-18T07:57:16;31.97;;;19.07;;
6348;SDS011;3207;42.648;23.406;2022-12-18T07:59:43;31.37;;;19.03;;
6348;SDS011;3207;42.648;23.406;2022-12-18T08:02:11;30.90;;;18.67;;
6348;SDS011;3207;42.648;23.406;2022-12-18T08:04:37;35.97;;;19.97;;
6348;SDS011;3207;42.648;23.406;2022-12-18T08:07:04;30.10;;;18.50;;
6348;SDS011;3207;42.648;23.406;2022-12-18T08:09:30;28.43;;;19.03;;
6348;SDS011;3207;42.648;23.406;2022-12-18T08:11:57;31.57;;;20.37;;
6348;SDS011;3207;42.648;23.406;2022-12-18T08:14:25;29.50;;;20.13;;
6348;SDS011;3207;42.648;23.406;2022-12-18T08:16:52;25.80;;;18.60;;
6348;SDS011;3207;42.648;23.406;2022-12-18T08:19:18;26.00;;;19.53;;
6348;SDS011;3207;42.648;23.406;2022-12-18T08:21:45;27.77;;;19.92;;
6348;SDS011;3207;42.648;23.406;2022-12-18T08:24:11;25.00;;;19.85;;
6348;SDS011;3207;42.648;23.406;2022-12-18T08:26:38;28.17;;;20.33;;
6348;SDS011;3207;42.648;23.406;2022-12-18T08:29:05;26.08;;;21.33;;
6348;SDS011;3207;42.648;23.406;2022-12-18T08:31:33;27.23;;;21.15;;
6348;SDS011;3207;42.648;23.406;2022-12-18T08:33:59;29.45;;;20.73;;
6348;SDS011;3207;42.648;23.406;2022-12-18T08:36:26;24.85;;;21.25;;
6348;SDS011;3207;42.648;23.406;2022-12-18T08:38:52;24.73;;;21.60;;
6348;SDS011;3207;42.648;23.406;2022-12-18T08:41:19;26.67;;;23.40;;
6348;SDS011;3207;42.648;23.406;2022-12-18T08:43:46;24.98;;;22.23;;
6348;SDS011;3207;42.648;23.406;2022-12-18T08:46:33;24.27;;;21.63;;
6348;SDS011;3207;42.648;23.406;2022-12-18T08:49:01;25.85;;;21.80;;
6348;SDS011;3207;42.648;23.406;2022-12-18T08:51:29;27.17;;;22.73;;
6348;SDS011;3207;42.648;23.406;2022-12-18T08:53:56;26.00;;;22.75;;
6348;SDS011;3207;42.648;23.406;2022-12-18T08:56:23;25.50;;;21.77;;
6348;SDS011;3207;42.648;23.406;2022-12-18T08:58:51;25.63;;;21.70;;
6348;SDS011;3207;42.648;23.406;2022-12-18T09:01:19;26.40;;;22.15;;
6348;SDS011;3207;42.648;23.406;2022-12-18T09:03:47;24.25;;;20.98;;
6348;SDS011;3207;42.648;23.406;2022-12-18T09:06:15;25.70;;;21.38;;
6348;SDS011;3207;42.648;23.406;2022-12-18T09:08:42;24.27;;;20.67;;
6348;SDS011;3207;42.648;23.406;2022-12-18T09:11:13;22.63;;;19.02;;
6348;SDS011;3207;42.648;23.406;2022-12-18T09:13:41;27.83;;;22.55;;
6348;SDS011;3207;42.648;23.406;2022-12-18T09:16:08;29.42;;;26.30;;
6348;SDS011;3207;42.648;23.406;2022-12-18T09:18:34;23.88;;;21.38;;
6348;SDS011;3207;42.648;23.406;2022-12-18T09:21:08;34.95;;;28.42;;
6348;SDS011;3207;42.648;23.406;2022-12-18T09:23:36;40.67;;;32.97;;
6348;SDS011;3207;42.648;23.406;2022-12-18T09:26:03;26.40;;;23.60;;
6348;SDS011;3207;42.648;23.406;2022-12-18T09:28:30;26.08;;;23.30;;
6348;SDS011;3207;42.648;23.406;2022-12-18T09:30:57;27.58;;;24.88;;
6348;SDS011;3207;42.648;23.406;2022-12-18T09:33:24;26.73;;;24.02;;
6348;SDS011;3207;42.648;23.406;2022-12-18T09:35:50;28.45;;;24.73;;
6348;SDS011;3207;42.648;23.406;2022-12-18T09:38:19;28.10;;;25.23;;
6348;SDS011;3207;42.648;23.406;2022-12-18T09:40:48;26.52;;;23.85;;
6348;SDS011;3207;42.648;23.406;2022-12-18T09:43:18;24.40;;;21.92;;
6348;SDS011;3207;42.648;23.406;2022-12-18T09:45:49;25.52;;;22.73;;
6348;SDS011;3207;42.648;23.406;2022-12-18T09:48:20;25.02;;;22.35;;
6348;SDS011;3207;42.648;23.406;2022-12-18T09:50:52;25.50;;;22.80;;
6348;SDS011;3207;42.648;23.406;2022-12-18T09:53:27;24.75;;;22.25;;
6348;SDS011;3207;42.648;23.406;2022-12-18T09:55:58;26.23;;;23.17;;
6348;SDS011;3207;42.648;23.406;2022-12-18T09:58:28;27.88;;;25.13;;
6348;SDS011;3207;42.648;23.406;2022-12-18T10:00:59;28.48;;;25.58;;
6348;SDS011;3207;42.648;23.406;2022-12-18T10:03:26;27.70;;;24.90;;
6348;SDS011;3207;42.648;23.406;2022-12-18T10:05:57;27.80;;;25.10;;
6348;SDS011;3207;42.648;23.406;2022-12-18T10:08:36;25.40;;;23.00;;
6348;SDS011;3207;42.648;23.406;2022-12-18T10:14:06;21.08;;;19.02;;
6348;SDS011;3207;42.648;23.406;2022-12-18T10:16:42;19.98;;;18.02;;
6348;SDS011;3207;42.648;23.406;2022-12-18T10:19:18;19.67;;;17.10;;
6348;SDS011;3207;42.648;23.406;2022-12-18T10:21:55;21.50;;;16.75;;
6348;SDS011;3207;42.648;23.406;2022-12-18T10:24:30;17.10;;;15.50;;
6348;SDS011;3207;42.648;23.406;2022-12-18T10:27:09;19.08;;;17.23;;
6348;SDS011;3207;42.648;23.406;2022-12-18T10:29:40;21.55;;;19.45;;
6348;SDS011;3207;42.648;23.406;2022-12-18T10:32:09;16.63;;;15.02;;
6348;SDS011;3207;42.648;23.406;2022-12-18T10:34:44;17.45;;;15.25;;
6348;SDS011;3207;42.648;23.406;2022-12-18T10:37:12;16.45;;;14.75;;
6348;SDS011;3207;42.648;23.406;2022-12-18T10:39:45;15.00;;;13.50;;
6348;SDS011;3207;42.648;23.406;2022-12-18T10:42:16;18.05;;;16.30;;
6348;SDS011;3207;42.648;23.406;2022-12-18T10:44:44;14.05;;;12.75;;
6348;SDS011;3207;42.648;23.406;2022-12-18T10:47:12;16.02;;;14.52;;
6348;SDS011;3207;42.648;23.406;2022-12-18T10:49:47;17.85;;;16.05;;
6348;SDS011;3207;42.648;23.406;2022-12-18T10:52:16;15.07;;;13.68;;
6348;SDS011;3207;42.648;23.406;2022-12-18T10:54:51;13.43;;;12.13;;
6348;SDS011;3207;42.648;23.406;2022-12-18T10:57:29;14.30;;;12.93;;
6348;SDS011;3207;42.648;23.406;2022-12-18T10:59:59;15.80;;;14.23;;
6348;SDS011;3207;42.648;23.406;2022-12-18T11:02:46;14.43;;;12.93;;
6348;SDS011;3207;42.648;23.406;2022-12-18T11:05:22;14.43;;;13.02;;
6348;SDS011;3207;42.648;23.406;2022-12-18T11:07:51;14.35;;;12.75;;
6348;SDS011;3207;42.648;23.406;2022-12-18T11:10:21;15.05;;;13.65;;
6348;SDS011;3207;42.648;23.406;2022-12-18T11:12:49;14.85;;;13.23;;
6348;SDS011;3207;42.648;23.406;2022-12-18T11:15:16;15.43;;;13.00;;
6348;SDS011;3207;42.648;23.406;2022-12-18T11:17:47;15.25;;;13.75;;
6348;SDS011;3207;42.648;23.406;2022-12-18T11:20:25;15.68;;;14.15;;
6348;SDS011;3207;42.648;23.406;2022-12-18T11:22:57;15.52;;;14.00;;
6348;SDS011;3207;42.648;23.406;2022-12-18T11:25:29;19.00;;;17.00;;
6348;SDS011;3207;42.648;23.406;2022-12-18T11:27:58;17.58;;;15.98;;
6348;SDS011;3207;42.648;23.406;2022-12-18T11:30:28;15.65;;;14.07;;
6348;SDS011;3207;42.648;23.406;2022-12-18T11:32:58;16.98;;;15.27;;
6348;SDS011;3207;42.648;23.406;2022-12-18T11:35:38;18.20;;;16.45;;
6348;SDS011;3207;42.648;23.406;2022-12-18T11:38:12;24.95;;;22.55;;
6348;SDS011;3207;42.648;23.406;2022-12-18T11:40:50;22.27;;;19.98;;
6348;SDS011;3207;42.648;23.406;2022-12-18T11:43:23;17.75;;;15.98;;
6348;SDS011;3207;42.648;23.406;2022-12-18T11:45:54;17.98;;;15.05;;
6348;SDS011;3207;42.648;23.406;2022-12-18T11:48:27;16.00;;;14.38;;
6348;SDS011;3207;42.648;23.406;2022-12-18T11:50:58;18.15;;;14.48;;
6348;SDS011;3207;42.648;23.406;2022-12-18T11:53:27;17.23;;;15.45;;
6348;SDS011;3207;42.648;23.406;2022-12-18T11:56:00;15.70;;;14.07;;
6348;SDS011;3207;42.648;23.406;2022-12-18T11:58:35;15.55;;;13.85;;
6348;SDS011;3207;42.648;23.406;2022-12-18T12:01:13;16.30;;;14.60;;
6348;SDS011;3207;42.648;23.406;2022-12-18T12:03:53;15.15;;;13.02;;
6348;SDS011;3207;42.648;23.406;2022-12-18T12:06:40;14.55;;;13.00;;
6348;SDS011;3207;42.648;23.406;2022-12-18T12:09:18;15.05;;;13.48;;
6348;SDS011;3207;42.648;23.406;2022-12-18T12:11:53;15.95;;;14.13;;
6348;SDS011;3207;42.648;23.406;2022-12-18T12:14:34;15.15;;;13.07;;
6348;SDS011;3207;42.648;23.406;2022-12-18T12:17:14;14.95;;;13.10;;
6348;SDS011;3207;42.648;23.406;2022-12-18T12:19:51;17.05;;;13.63;;
6348;SDS011;3207;42.648;23.406;2022-12-18T12:22:24;16.00;;;13.77;;
6348;SDS011;3207;42.648;23.406;2022-12-18T12:25:03;19.10;;;13.77;;
6348;SDS011;3207;42.648;23.406;2022-12-18T12:27:47;16.67;;;14.18;;
6348;SDS011;3207;42.648;23.406;2022-12-18T12:30:22;16.40;;;13.85;;
6348;SDS011;3207;42.648;23.406;2022-12-18T12:33:00;18.63;;;15.07;;
6348;SDS011;3207;42.648;23.406;2022-12-18T12:35:44;19.20;;;15.32;;
6348;SDS011;3207;42.648;23.406;2022-12-18T12:38:19;20.83;;;15.75;;
6348;SDS011;3207;42.648;23.406;2022-12-18T12:40:51;14.52;;;12.60;;
6348;SDS011;3207;42.648;23.406;2022-12-18T12:43:27;17.70;;;14.30;;
6348;SDS011;3207;42.648;23.406;2022-12-18T12:46:03;16.52;;;13.52;;
6348;SDS011;3207;42.648;23.406;2022-12-18T12:48:33;16.23;;;13.32;;
6348;SDS011;3207;42.648;23.406;2022-12-18T12:51:07;16.02;;;13.63;;
6348;SDS011;3207;42.648;23.406;2022-12-18T12:53:37;17.63;;;14.35;;
6348;SDS011;3207;42.648;23.406;2022-12-18T12:56:06;16.75;;;12.77;;
6348;SDS011;3207;42.648;23.406;2022-12-18T12:58:38;15.93;;;12.67;;
6348;SDS011;3207;42.648;23.406;2022-12-18T13:01:16;18.37;;;13.83;;
6348;SDS011;3207;42.648;23.406;2022-12-18T13:03:52;15.52;;;13.57;;
6348;SDS011;3207;42.648;23.406;2022-12-18T13:06:37;17.95;;;13.23;;
6348;SDS011;3207;42.648;23.406;2022-12-18T13:09:09;17.67;;;14.55;;
6348;SDS011;3207;42.648;23.406;2022-12-18T13:11:37;20.07;;;14.07;;
6348;SDS011;3207;42.648;23.406;2022-12-18T13:14:26;17.23;;;12.87;;
6348;SDS011;3207;42.648;23.406;2022-12-18T13:20:08;17.13;;;12.77;;
6348;SDS011;3207;42.648;23.406;2022-12-18T13:22:36;15.20;;;13.13;;
6348;SDS011;3207;42.648;23.406;2022-12-18T13:25:03;17.97;;;12.70;;
6348;SDS011;3207;42.648;23.406;2022-12-18T13:27:46;18.43;;;13.13;;
6348;SDS011;3207;42.648;23.406;2022-12-18T13:35:53;18.97;;;13.63;;
6348;SDS011;3207;42.648;23.406;2022-12-18T13:38:32;16.93;;;12.60;;
6348;SDS011;3207;42.648;23.406;2022-12-18T13:41:00;16.23;;;12.23;;
6348;SDS011;3207;42.648;23.406;2022-12-18T13:43:29;15.83;;;11.77;;
6348;SDS011;3207;42.648;23.406;2022-12-18T13:45:59;16.20;;;12.60;;
6348;SDS011;3207;42.648;23.406;2022-12-18T13:48:29;17.10;;;12.57;;
6348;SDS011;3207;42.648;23.406;2022-12-18T13:51:01;18.53;;;13.77;;
6348;SDS011;3207;42.648;23.406;2022-12-18T13:53:32;18.83;;;13.77;;
6348;SDS011;3207;42.648;23.406;2022-12-18T13:56:02;18.20;;;12.60;;
6348;SDS011;3207;42.648;23.406;2022-12-18T13:58:29;19.13;;;12.30;;
6348;SDS011;3207;42.648;23.406;2022-12-18T14:00:57;21.90;;;14.57;;
6348;SDS011;3207;42.648;23.406;2022-12-18T14:03:25;16.97;;;12.97;;
6348;SDS011;3207;42.648;23.406;2022-12-18T14:05:59;19.50;;;12.83;;
6348;SDS011;3207;42.648;23.406;2022-12-18T14:08:33;19.80;;;14.40;;
6348;SDS011;3207;42.648;23.406;2022-12-18T14:11:04;21.30;;;12.83;;
6348;SDS011;3207;42.648;23.406;2022-12-18T14:13:33;18.47;;;12.80;;
6348;SDS011;3207;42.648;23.406;2022-12-18T14:16:04;19.10;;;13.50;;
6348;SDS011;3207;42.648;23.406;2022-12-18T14:18:36;17.53;;;12.40;;
6348;SDS011;3207;42.648;23.406;2022-12-18T14:21:14;17.97;;;12.13;;
6348;SDS011;3207;42.648;23.406;2022-12-18T14:23:44;17.53;;;12.67;;
6348;SDS011;3207;42.648;23.406;2022-12-18T14:26:20;17.50;;;11.53;;
6348;SDS011;3207;42.648;23.406;2022-12-18T14:28:49;18.03;;;11.97;;
6348;SDS011;3207;42.648;23.406;2022-12-18T14:31:19;19.47;;;13.03;;
6348;SDS011;3207;42.648;23.406;2022-12-18T14:33:49;16.50;;;11.90;;
6348;SDS011;3207;42.648;23.406;2022-12-18T14:36:18;17.67;;;12.43;;
6348;SDS011;3207;42.648;23.406;2022-12-18T14:38:48;19.43;;;12.87;;
6348;SDS011;3207;42.648;23.406;2022-12-18T14:41:17;17.33;;;11.67;;
6348;SDS011;3207;42.648;23.406;2022-12-18T14:43:45;16.37;;;11.10;;
6348;SDS011;3207;42.648;23.406;2022-12-18T14:46:30;19.00;;;13.10;;
6348;SDS011;3207;42.648;23.406;2022-12-18T14:49:01;16.87;;;12.23;;
6348;SDS011;3207;42.648;23.406;2022-12-18T14:51:32;18.20;;;13.67;;
6348;SDS011;3207;42.648;23.406;2022-12-18T14:54:00;24.40;;;16.27;;
6348;SDS011;3207;42.648;23.406;2022-12-18T14:56:29;29.33;;;18.10;;
6348;SDS011;3207;42.648;23.406;2022-12-18T14:58:58;36.30;;;20.17;;
6348;SDS011;3207;42.648;23.406;2022-12-18T15:01:28;32.73;;;19.77;;